San Fermin Berria — EBVW — position and weather

sailwx.info

Track history (hours):
 
Tides and Currents Weather Stations Pressure Air Temp Water Temp Dewpoint Dewpoint Depression Visibility Wind Speed Wind Dir Waves Ship Positions

San Fermin Berria

Last reported at 2018-Apr-23 21:00 UTC. Time now 2018-Apr-23 21:03 UTC.
Position N 43°34' W 002°33'.

Length 30 m.

Type: Fishing. MMSI: 224114650.

Date/timePositionNaut miles runAvg speedWind from/ knotsBaromVisibWave heightAir tempDewpointWater temp
2018-Apr-23 21:00N 43°34' W 002°33'0 0.6
2018-Apr-23 20:30N 43°34' W 002°33'0 0.3
2018-Apr-23 20:00N 43°34' W 002°33'4 8.7
2018-Apr-23 19:30N 43°34' W 002°27'3 6.3
2018-Apr-23 19:00N 43°34' W 002°22'0 0.5
2018-Apr-23 18:30N 43°34' W 002°22'0 0.5
2018-Apr-23 18:00N 43°34' W 002°23'0 0.5
2018-Apr-23 17:30N 43°34' W 002°23'0 0.1
2018-Apr-23 17:00N 43°34' W 002°23'1 1.3
2018-Apr-23 16:30N 43°34' W 002°24'1 2.4
2018-Apr-23 16:00N 43°33' W 002°24'1 2.7
2018-Apr-23 15:30N 43°32' W 002°22'1 2.2
2018-Apr-23 15:00N 43°32' W 002°21'0 0.4
2018-Apr-23 14:31N 43°32' W 002°21'0 1.0
2018-Apr-23 14:00N 43°32' W 002°21'0 1.0
2018-Apr-23 13:30N 43°32' W 002°22'1 1.4
2018-Apr-23 13:00N 43°31' W 002°22'0 0.4
2018-Apr-23 12:30N 43°31' W 002°22'2 4.0
2018-Apr-23 12:00N 43°33' W 002°22'1 1.3
2018-Apr-23 11:30N 43°33' W 002°22'0 0.4
2018-Apr-23 11:01N 43°33' W 002°22'2 4.2
2018-Apr-23 10:30N 43°31' W 002°23'611.1
2018-Apr-23 10:00N 43°32' W 002°15'612.0
2018-Apr-23 09:30N 43°32' W 002°07'611.9
2018-Apr-23 09:00N 43°33' W 001°59'611.5
2018-Apr-23 08:30N 43°34' W 001°51'4 7.9
2018-Apr-23 07:59N 43°30' W 001°50'3 7.0
2018-Apr-23 07:30N 43°26' W 001°49'3 6.0
2018-Apr-23 07:00N 43°24' W 001°47'1 1.3
2018-Apr-23 06:30N 43°23' W 001°48'0 0.1
2018-Apr-23 06:00N 43°23' W 001°48'  
2018-Apr-20 17:42N 43°23' W 001°48'0 0.0
2018-Apr-20 17:30N 43°23' W 001°48'0 0.1
2018-Apr-20 17:00N 43°23' W 001°47'0 0.1
2018-Apr-20 16:30N 43°23' W 001°47'0 0.0
2018-Apr-20 16:00N 43°23' W 001°47'0 0.0
2018-Apr-20 15:30N 43°23' W 001°47'0 0.2
2018-Apr-20 15:00N 43°23' W 001°48'0 0.0
2018-Apr-20 14:30N 43°23' W 001°48'0 0.6
2018-Apr-20 14:00N 43°23' W 001°47'5 8.4
2018-Apr-20 13:28N 43°28' W 001°47'510.0
2018-Apr-20 12:58N 43°33' W 001°47'72 8.7
2018-Apr-20 04:41N 44°45' W 001°49'1 3.4
2018-Apr-20 04:16N 44°43' W 001°49'0 0.1
2018-Apr-20 03:54N 44°43' W 001°49'0 0.1
2018-Apr-20 03:26N 44°43' W 001°49'5 2.1
2018-Apr-20 01:09N 44°39' W 001°51'611.6
2018-Apr-20 00:41N 44°33' W 001°49'5211.2
2018-Apr-19 20:03N 43°41' W 001°46'211.4
2018-Apr-19 19:52N 43°39' W 001°46'411.7
2018-Apr-19 19:29N 43°35' W 001°46'612.0
2018-Apr-19 19:00N 43°29' W 001°47'6 1.5
2018-Apr-19 14:54N 43°23' W 001°48'0 0.0
2018-Apr-19 14:31N 43°23' W 001°48'2 3.5
2018-Apr-19 13:59N 43°25' W 001°47'612.0
2018-Apr-19 13:30N 43°31' W 001°47'611.6
2018-Apr-19 13:00N 43°36' W 001°46'5111.2
2018-Apr-19 08:30N 44°27' W 001°44'611.5
2018-Apr-19 08:00N 44°33' W 001°44'510.3
2018-Apr-19 07:30N 44°38' W 001°43'0 0.6
2018-Apr-19 07:00N 44°38' W 001°43'0 0.5
2018-Apr-19 06:30N 44°38' W 001°42'0 0.4
2018-Apr-19 06:00N 44°38' W 001°42'0 0.4
2018-Apr-19 05:30N 44°38' W 001°42'0 0.3
2018-Apr-19 05:00N 44°38' W 001°42'0 0.4
2018-Apr-19 04:30N 44°38' W 001°42'2 4.5
2018-Apr-19 04:00N 44°39' W 001°44'2 3.0
2018-Apr-19 03:30N 44°40' W 001°46'0 0.4
2018-Apr-19 02:59N 44°40' W 001°46'0 0.3
2018-Apr-19 02:30N 44°40' W 001°46'0 0.6
2018-Apr-19 01:57N 44°40' W 001°47'3 6.5
2018-Apr-19 01:30N 44°37' W 001°48'5811.0
2018-Apr-18 20:15N 43°40' W 001°48'311.2
2018-Apr-18 19:59N 43°37' W 001°48'511.1
2018-Apr-18 19:30N 43°31' W 001°47'610.9
2018-Apr-18 18:58N 43°25' W 001°47'2 5.0
2018-Apr-18 18:30N 43°23' W 001°47'0 0.0
2018-Apr-18 18:00N 43°23' W 001°47'0 0.0
2018-Apr-18 17:30N 43°23' W 001°47'0 0.1
2018-Apr-18 17:00N 43°23' W 001°48'0 0.0
2018-Apr-18 16:30N 43°23' W 001°48'0 0.0
2018-Apr-18 16:00N 43°23' W 001°48'0 0.0
2018-Apr-18 15:30N 43°23' W 001°48'0 0.0
2018-Apr-18 15:00N 43°23' W 001°48'0 0.0
2018-Apr-18 14:29N 43°23' W 001°48'0 0.0
2018-Apr-18 14:00N 43°23' W 001°48'0 0.0
2018-Apr-18 13:30N 43°23' W 001°48'0 0.0
2018-Apr-18 13:00N 43°23' W 001°48'3 6.7
2018-Apr-18 12:30N 43°27' W 001°47'611.1
2018-Apr-18 11:59N 43°32' W 001°48'4211.4
2018-Apr-18 08:17N 44°14' W 001°53'311.1
2018-Apr-18 08:00N 44°17' W 001°54'1610.7
2018-Apr-18 06:33N 44°33' W 001°56'1 5.0
2018-Apr-18 06:20N 44°34' W 001°55'2 4.1
2018-Apr-18 05:57N 44°33' W 001°53'4 8.5
2018-Apr-18 05:30N 44°30' W 001°49'2 3.2
2018-Apr-18 04:57N 44°29' W 001°50'2 3.5
2018-Apr-18 04:30N 44°30' W 001°51'0 0.3
2018-Apr-18 04:00N 44°30' W 001°51'0 0.1
2018-Apr-18 03:29N 44°30' W 001°51'0 0.5
2018-Apr-18 02:50N 44°30' W 001°52'0 1.4
2018-Apr-18 02:30N 44°30' W 001°52'3 6.6
2018-Apr-18 02:00N 44°27' W 001°53'3 5.7
2018-Apr-18 01:30N 44°25' W 001°50'3 6.9
2018-Apr-18 01:01N 44°26' W 001°45'1 1.6
2018-Apr-18 00:30N 44°26' W 001°46'3 6.5
2018-Apr-18 00:00N 44°28' W 001°50'0 0.5
2018-Apr-17 23:30N 44°28' W 001°50'0 0.5
2018-Apr-17 23:00N 44°28' W 001°50'0 0.7
2018-Apr-17 22:30N 44°28' W 001°49'0 0.7
2018-Apr-17 22:00N 44°28' W 001°49'3 6.6
2018-Apr-17 21:30N 44°26' W 001°52'35 9.4
2018-Apr-17 17:44N 43°51' W 001°46'3 9.7
2018-Apr-17 17:22N 43°47' W 001°46'4 9.6
2018-Apr-17 16:58N 43°43' W 001°46'4 9.7
2018-Apr-17 16:30N 43°39' W 001°47'5 9.9
2018-Apr-17 16:00N 43°34' W 001°47'5 9.8
2018-Apr-17 15:28N 43°29' W 001°47'5 9.8
2018-Apr-17 15:00N 43°24' W 001°47'1 2.3
2018-Apr-17 14:30N 43°23' W 001°48'0 0.0
2018-Apr-17 14:00N 43°23' W 001°48'0 0.0
2018-Apr-17 13:30N 43°23' W 001°48'0 0.0
2018-Apr-17 13:00N 43°23' W 001°48'0 0.0
2018-Apr-17 12:30N 43°23' W 001°48'0 0.0
2018-Apr-17 12:00N 43°23' W 001°48'0 0.0
2018-Apr-17 11:30N 43°23' W 001°48'0 0.0
2018-Apr-17 11:00N 43°23' W 001°48'0 0.0
2018-Apr-17 10:30N 43°23' W 001°48'0 0.0
2018-Apr-17 10:00N 43°23' W 001°48'0 0.0
2018-Apr-17 09:30N 43°23' W 001°48'0 0.0
2018-Apr-17 09:00N 43°23' W 001°48'0 0.0
2018-Apr-17 08:30N 43°23' W 001°48'0 0.0
2018-Apr-17 08:00N 43°23' W 001°48'0 0.0
2018-Apr-17 07:30N 43°23' W 001°48'0 0.0
2018-Apr-17 07:00N 43°23' W 001°48'4 6.1
2018-Apr-17 06:19N 43°27' W 001°46'3 9.9
2018-Apr-17 06:00N 43°30' W 001°46'4 8.8
2018-Apr-17 05:30N 43°35' W 001°45'5 9.6
2018-Apr-17 05:00N 43°39' W 001°44'13 2.0
2018-Apr-16 22:33N 43°50' W 001°55'0 0.2
2018-Apr-16 22:20N 43°50' W 001°55'0 0.2
2018-Apr-16 22:00N 43°50' W 001°55'0 0.2
2018-Apr-16 21:28N 43°49' W 001°54'24 1.7
2018-Apr-16 07:00N 43°25' W 001°52'4 7.7
2018-Apr-16 06:30N 43°24' W 001°47'1 1.2
2018-Apr-16 06:00N 43°23' W 001°47'  
Track history (hours):
 
Tides and Currents Weather Stations Pressure Air Temp Water Temp Dewpoint Dewpoint Depression Visibility Wind Speed Wind Dir Waves Ship Positions

San Fermin Berria

Last reported at 2018-Apr-23 21:00 UTC. Time now 2018-Apr-23 21:03 UTC.
Position N 43°34' W 002°33'.

Length 30 m.

Type: Fishing. MMSI: 224114650.

Date/timePositionNaut miles runAvg speedWind from/ knotsBaromVisibWave heightAir tempDewpointWater temp
2018-Apr-23 21:00N 43°34' W 002°33'0 0.6
2018-Apr-23 20:30N 43°34' W 002°33'0 0.3
2018-Apr-23 20:00N 43°34' W 002°33'4 8.7
2018-Apr-23 19:30N 43°34' W 002°27'3 6.3
2018-Apr-23 19:00N 43°34' W 002°22'0 0.5
2018-Apr-23 18:30N 43°34' W 002°22'0 0.5
2018-Apr-23 18:00N 43°34' W 002°23'0 0.5
2018-Apr-23 17:30N 43°34' W 002°23'0 0.1
2018-Apr-23 17:00N 43°34' W 002°23'1 1.3
2018-Apr-23 16:30N 43°34' W 002°24'1 2.4
2018-Apr-23 16:00N 43°33' W 002°24'1 2.7
2018-Apr-23 15:30N 43°32' W 002°22'1 2.2
2018-Apr-23 15:00N 43°32' W 002°21'0 0.4
2018-Apr-23 14:31N 43°32' W 002°21'0 1.0
2018-Apr-23 14:00N 43°32' W 002°21'0 1.0
2018-Apr-23 13:30N 43°32' W 002°22'1 1.4
2018-Apr-23 13:00N 43°31' W 002°22'0 0.4
2018-Apr-23 12:30N 43°31' W 002°22'2 4.0
2018-Apr-23 12:00N 43°33' W 002°22'1 1.3
2018-Apr-23 11:30N 43°33' W 002°22'0 0.4
2018-Apr-23 11:01N 43°33' W 002°22'2 4.2
2018-Apr-23 10:30N 43°31' W 002°23'611.1
2018-Apr-23 10:00N 43°32' W 002°15'612.0
2018-Apr-23 09:30N 43°32' W 002°07'611.9
2018-Apr-23 09:00N 43°33' W 001°59'611.5
2018-Apr-23 08:30N 43°34' W 001°51'4 7.9
2018-Apr-23 07:59N 43°30' W 001°50'3 7.0
2018-Apr-23 07:30N 43°26' W 001°49'3 6.0
2018-Apr-23 07:00N 43°24' W 001°47'1 1.3
2018-Apr-23 06:30N 43°23' W 001°48'0 0.1
2018-Apr-23 06:00N 43°23' W 001°48'  
2018-Apr-20 17:42N 43°23' W 001°48'0 0.0
2018-Apr-20 17:30N 43°23' W 001°48'0 0.1
2018-Apr-20 17:00N 43°23' W 001°47'0 0.1
2018-Apr-20 16:30N 43°23' W 001°47'0 0.0
2018-Apr-20 16:00N 43°23' W 001°47'0 0.0
2018-Apr-20 15:30N 43°23' W 001°47'0 0.2
2018-Apr-20 15:00N 43°23' W 001°48'0 0.0
2018-Apr-20 14:30N 43°23' W 001°48'0 0.6
2018-Apr-20 14:00N 43°23' W 001°47'5 8.4
2018-Apr-20 13:28N 43°28' W 001°47'510.0
2018-Apr-20 12:58N 43°33' W 001°47'72 8.7
2018-Apr-20 04:41N 44°45' W 001°49'1 3.4
2018-Apr-20 04:16N 44°43' W 001°49'0 0.1
2018-Apr-20 03:54N 44°43' W 001°49'0 0.1
2018-Apr-20 03:26N 44°43' W 001°49'5 2.1
2018-Apr-20 01:09N 44°39' W 001°51'611.6
2018-Apr-20 00:41N 44°33' W 001°49'5211.2
2018-Apr-19 20:03N 43°41' W 001°46'211.4
2018-Apr-19 19:52N 43°39' W 001°46'411.7
2018-Apr-19 19:29N 43°35' W 001°46'612.0
2018-Apr-19 19:00N 43°29' W 001°47'6 1.5
2018-Apr-19 14:54N 43°23' W 001°48'0 0.0
2018-Apr-19 14:31N 43°23' W 001°48'2 3.5
2018-Apr-19 13:59N 43°25' W 001°47'612.0
2018-Apr-19 13:30N 43°31' W 001°47'611.6
2018-Apr-19 13:00N 43°36' W 001°46'5111.2
2018-Apr-19 08:30N 44°27' W 001°44'611.5
2018-Apr-19 08:00N 44°33' W 001°44'510.3
2018-Apr-19 07:30N 44°38' W 001°43'0 0.6
2018-Apr-19 07:00N 44°38' W 001°43'0 0.5
2018-Apr-19 06:30N 44°38' W 001°42'0 0.4
2018-Apr-19 06:00N 44°38' W 001°42'0 0.4
2018-Apr-19 05:30N 44°38' W 001°42'0 0.3
2018-Apr-19 05:00N 44°38' W 001°42'0 0.4
2018-Apr-19 04:30N 44°38' W 001°42'2 4.5
2018-Apr-19 04:00N 44°39' W 001°44'2 3.0
2018-Apr-19 03:30N 44°40' W 001°46'0 0.4
2018-Apr-19 02:59N 44°40' W 001°46'0 0.3
2018-Apr-19 02:30N 44°40' W 001°46'0 0.6
2018-Apr-19 01:57N 44°40' W 001°47'3 6.5
2018-Apr-19 01:30N 44°37' W 001°48'5811.0
2018-Apr-18 20:15N 43°40' W 001°48'311.2
2018-Apr-18 19:59N 43°37' W 001°48'511.1
2018-Apr-18 19:30N 43°31' W 001°47'610.9
2018-Apr-18 18:58N 43°25' W 001°47'2 5.0
2018-Apr-18 18:30N 43°23' W 001°47'0 0.0
2018-Apr-18 18:00N 43°23' W 001°47'0 0.0
2018-Apr-18 17:30N 43°23' W 001°47'0 0.1
2018-Apr-18 17:00N 43°23' W 001°48'0 0.0
2018-Apr-18 16:30N 43°23' W 001°48'0 0.0
2018-Apr-18 16:00N 43°23' W 001°48'0 0.0
2018-Apr-18 15:30N 43°23' W 001°48'0 0.0
2018-Apr-18 15:00N 43°23' W 001°48'0 0.0
2018-Apr-18 14:29N 43°23' W 001°48'0 0.0
2018-Apr-18 14:00N 43°23' W 001°48'0 0.0
2018-Apr-18 13:30N 43°23' W 001°48'0 0.0
2018-Apr-18 13:00N 43°23' W 001°48'3 6.7
2018-Apr-18 12:30N 43°27' W 001°47'611.1
2018-Apr-18 11:59N 43°32' W 001°48'4211.4
2018-Apr-18 08:17N 44°14' W 001°53'311.1
2018-Apr-18 08:00N 44°17' W 001°54'1610.7
2018-Apr-18 06:33N 44°33' W 001°56'1 5.0
2018-Apr-18 06:20N 44°34' W 001°55'2 4.1
2018-Apr-18 05:57N 44°33' W 001°53'4 8.5
2018-Apr-18 05:30N 44°30' W 001°49'2 3.2
2018-Apr-18 04:57N 44°29' W 001°50'2 3.5
2018-Apr-18 04:30N 44°30' W 001°51'0 0.3
2018-Apr-18 04:00N 44°30' W 001°51'0 0.1
2018-Apr-18 03:29N 44°30' W 001°51'0 0.5
2018-Apr-18 02:50N 44°30' W 001°52'0 1.4
2018-Apr-18 02:30N 44°30' W 001°52'3 6.6
2018-Apr-18 02:00N 44°27' W 001°53'3 5.7
2018-Apr-18 01:30N 44°25' W 001°50'3 6.9
2018-Apr-18 01:01N 44°26' W 001°45'1 1.6
2018-Apr-18 00:30N 44°26' W 001°46'3 6.5
2018-Apr-18 00:00N 44°28' W 001°50'0 0.5
2018-Apr-17 23:30N 44°28' W 001°50'0 0.5
2018-Apr-17 23:00N 44°28' W 001°50'0 0.7
2018-Apr-17 22:30N 44°28' W 001°49'0 0.7
2018-Apr-17 22:00N 44°28' W 001°49'3 6.6
2018-Apr-17 21:30N 44°26' W 001°52'35 9.4
2018-Apr-17 17:44N 43°51' W 001°46'3 9.7
2018-Apr-17 17:22N 43°47' W 001°46'4 9.6
2018-Apr-17 16:58N 43°43' W 001°46'4 9.7
2018-Apr-17 16:30N 43°39' W 001°47'5 9.9
2018-Apr-17 16:00N 43°34' W 001°47'5 9.8
2018-Apr-17 15:28N 43°29' W 001°47'5 9.8
2018-Apr-17 15:00N 43°24' W 001°47'1 2.3
2018-Apr-17 14:30N 43°23' W 001°48'0 0.0
2018-Apr-17 14:00N 43°23' W 001°48'0 0.0
2018-Apr-17 13:30N 43°23' W 001°48'0 0.0
2018-Apr-17 13:00N 43°23' W 001°48'0 0.0
2018-Apr-17 12:30N 43°23' W 001°48'0 0.0
2018-Apr-17 12:00N 43°23' W 001°48'0 0.0
2018-Apr-17 11:30N 43°23' W 001°48'0 0.0
2018-Apr-17 11:00N 43°23' W 001°48'0 0.0
2018-Apr-17 10:30N 43°23' W 001°48'0 0.0
2018-Apr-17 10:00N 43°23' W 001°48'0 0.0
2018-Apr-17 09:30N 43°23' W 001°48'0 0.0
2018-Apr-17 09:00N 43°23' W 001°48'0 0.0
2018-Apr-17 08:30N 43°23' W 001°48'0 0.0
2018-Apr-17 08:00N 43°23' W 001°48'0 0.0
2018-Apr-17 07:30N 43°23' W 001°48'0 0.0
2018-Apr-17 07:00N 43°23' W 001°48'4 6.1
2018-Apr-17 06:19N 43°27' W 001°46'3 9.9
2018-Apr-17 06:00N 43°30' W 001°46'4 8.8
2018-Apr-17 05:30N 43°35' W 001°45'5 9.6
2018-Apr-17 05:00N 43°39' W 001°44'13 2.0
2018-Apr-16 22:33N 43°50' W 001°55'0 0.2
2018-Apr-16 22:20N 43°50' W 001°55'0 0.2
2018-Apr-16 22:00N 43°50' W 001°55'0 0.2
2018-Apr-16 21:28N 43°49' W 001°54'24 1.7
2018-Apr-16 07:00N 43°25' W 001°52'4 7.7
2018-Apr-16 06:30N 43°24' W 001°47'1 1.2
2018-Apr-16 06:00N 43°23' W 001°47'  

Dump ship's entire track history